Time;durP1;ratioP1;P1;durP2;ratioP2;P2;SDS_P1;SDS_P2;PMS_P1;PMS_P2;Temp;Humidity;BMP_temperature;BMP_pressure;BME280_temperature;BME280_humidity;BME280_pressure;Samples;Min_cycle;Max_cycle;Signal;HPM_P1;HPM_P2
2022/05/15 00:01:34;;;;;;;5.28;2.60;;;;;;;11.78;47.80;98614.38;4817139;29;20038;-79
2022/05/15 00:04:01;;;;;;;9.30;2.60;;;;;;;11.74;47.82;98608.38;4813165;29;20090;-79
2022/05/15 00:06:27;;;;;;;7.63;3.10;;;;;;;11.88;48.05;98637.47;4820010;29;20050;-80
2022/05/15 00:08:53;;;;;;;5.45;2.60;;;;;;;11.87;47.51;98643.59;4835215;29;20046;-78
2022/05/15 00:11:19;;;;;;;6.30;2.80;;;;;;;11.69;48.38;98616.38;4806142;29;20209;-79
2022/05/15 00:13:47;;;;;;;5.80;2.92;;;;;;;11.74;48.02;98626.63;4835038;29;20502;-79
2022/05/15 00:16:14;;;;;;;3.70;2.42;;;;;;;11.75;48.11;98641.38;4788532;29;20045;-79
2022/05/15 00:18:40;;;;;;;9.80;2.75;;;;;;;11.60;48.55;98627.06;4816665;29;20050;-79
2022/05/15 00:21:07;;;;;;;9.55;2.78;;;;;;;11.52;48.32;98626.47;4834362;29;20080;-80
2022/05/15 00:23:33;;;;;;;10.27;2.90;;;;;;;11.35;48.75;98627.88;4825233;29;20053;-77
2022/05/15 00:25:59;;;;;;;10.57;2.55;;;;;;;11.37;48.98;98643.44;4818004;29;20080;-78
2022/05/15 00:28:26;;;;;;;4.50;2.42;;;;;;;11.28;49.10;98648.00;4803187;29;20920;-79
2022/05/15 00:30:52;;;;;;;5.95;2.60;;;;;;;11.14;48.90;98642.38;4799765;29;20058;-79
2022/05/15 00:33:19;;;;;;;7.90;2.60;;;;;;;11.05;49.12;98630.47;4817845;29;20083;-80
2022/05/15 00:35:45;;;;;;;7.43;2.63;;;;;;;10.97;49.37;98632.44;4825744;29;20037;-80
2022/05/15 00:38:12;;;;;;;8.23;2.53;;;;;;;11.01;49.70;98644.47;4817905;29;20046;-79
2022/05/15 00:40:42;;;;;;;5.30;2.70;;;;;;;10.72;49.44;98611.50;4819141;29;20073;-79
2022/05/15 00:43:11;;;;;;;5.35;2.30;;;;;;;10.89;49.87;98642.25;4819923;29;20097;-80
2022/05/15 00:45:37;;;;;;;4.95;2.03;;;;;;;10.87;49.80;98642.28;4838971;29;20038;-80
2022/05/15 00:48:04;;;;;;;5.15;1.92;;;;;;;10.73;49.87;98631.41;4813483;29;20057;-80
2022/05/15 00:50:33;;;;;;;5.10;2.20;;;;;;;10.74;49.76;98631.34;4838275;29;20053;-80
2022/05/15 00:53:05;;;;;;;9.45;2.17;;;;;;;10.81;49.98;98639.88;4821091;29;20053;-79
2022/05/15 00:55:38;;;;;;;7.13;2.08;;;;;;;10.87;49.79;98638.81;4821053;29;20434;-79
2022/05/15 00:58:10;;;;;;;3.75;1.88;;;;;;;10.82;50.05;98619.00;4858472;29;20030;-77
2022/05/15 01:00:40;;;;;;;6.43;2.40;;;;;;;11.04;50.28;98633.97;4839143;29;20053;-78
2022/05/15 01:03:13;;;;;;;7.55;2.03;;;;;;;11.09;50.04;98632.09;4810475;29;20137;-78
2022/05/15 01:05:43;;;;;;;4.95;2.22;;;;;;;11.14;50.09;98624.97;4823028;29;20052;-78
2022/05/15 01:08:10;;;;;;;3.78;1.98;;;;;;;11.21;49.94;98630.00;4808773;29;20141;-80
2022/05/15 01:10:40;;;;;;;3.50;1.90;;;;;;;11.24;49.57;98629.94;4826074;29;20053;-79
2022/05/15 01:13:06;;;;;;;4.25;2.10;;;;;;;11.25;50.01;98622.09;4823121;29;20078;-79
2022/05/15 01:15:33;;;;;;;12.93;2.30;;;;;;;11.10;50.01;98589.56;4821340;29;20430;-80
2022/05/15 01:18:03;;;;;;;5.97;2.17;;;;;;;11.22;49.71;98600.47;4821266;29;20116;-78
2022/05/15 01:20:30;;;;;;;3.55;2.00;;;;;;;11.27;49.93;98604.63;4805249;29;20077;-78
2022/05/15 01:22:58;;;;;;;7.38;2.42;;;;;;;11.47;49.89;98626.63;4806217;29;20394;-78
2022/05/15 01:25:32;;;;;;;5.10;2.00;;;;;;;11.42;49.32;98613.72;4816908;29;20052;-81
2022/05/15 01:28:09;;;;;;;8.52;2.10;;;;;;;11.43;49.99;98615.44;4820840;29;20041;-78
2022/05/15 01:30:42;;;;;;;6.32;2.45;;;;;;;11.42;49.64;98610.28;4806496;29;20418;-79
2022/05/15 01:33:08;;;;;;;4.97;2.00;;;;;;;11.42;49.79;98618.09;4799302;29;20118;-81
2022/05/15 01:35:36;;;;;;;4.78;1.80;;;;;;;11.08;50.15;98556.63;4815539;29;20045;-79
2022/05/15 01:38:03;;;;;;;3.85;1.95;;;;;;;11.54;49.83;98620.31;4802313;29;20137;-80
2022/05/15 01:40:30;;;;;;;3.53;2.17;;;;;;;11.42;49.93;98598.09;4808629;29;20046;-79
2022/05/15 01:42:56;;;;;;;3.40;1.90;;;;;;;11.43;49.99;98588.56;4814684;29;20042;-80
2022/05/15 01:45:22;;;;;;;4.03;2.00;;;;;;;11.58;49.94;98610.66;4812523;29;20448;-78
2022/05/15 01:47:49;;;;;;;5.63;2.05;;;;;;;11.72;49.42;98616.28;4811756;29;20050;-79
2022/05/15 01:50:16;;;;;;;5.22;1.92;;;;;;;11.81;49.31;98630.75;4813412;29;20106;-80
2022/05/15 01:52:43;;;;;;;5.15;2.00;;;;;;;11.83;49.27;98628.09;4837846;29;20665;-79
2022/05/15 01:55:09;;;;;;;4.22;1.70;;;;;;;11.82;49.73;98627.25;4835758;29;20459;-80
2022/05/15 01:57:35;;;;;;;4.38;1.90;;;;;;;11.69;49.54;98603.34;4836563;29;20550;-78
2022/05/15 02:00:06;;;;;;;3.42;1.85;;;;;;;11.81;49.69;98630.75;4812450;29;20571;-80
2022/05/15 02:02:39;;;;;;;5.07;2.15;;;;;;;11.71;49.65;98617.16;4838453;29;20122;-79
2022/05/15 02:05:07;;;;;;;7.43;1.80;;;;;;;11.72;49.76;98631.03;4838331;29;20498;-82
2022/05/15 02:07:34;;;;;;;7.63;2.00;;;;;;;11.70;49.81;98628.50;4837126;29;20048;-79
2022/05/15 02:10:01;;;;;;;5.78;2.00;;;;;;;11.58;49.81;98611.50;4820025;29;20050;-79
2022/05/15 02:12:29;;;;;;;4.10;1.90;;;;;;;11.57;49.44;98612.41;4808027;29;20052;-79
2022/05/15 02:14:56;;;;;;;3.60;1.75;;;;;;;11.21;50.27;98572.72;4812874;29;20485;-78
2022/05/15 02:17:24;;;;;;;4.80;1.83;;;;;;;11.27;50.25;98583.81;4828387;29;20094;-80
2022/05/15 02:19:51;;;;;;;4.78;1.60;;;;;;;11.50;50.53;98625.66;4817499;29;20045;-79
2022/05/15 02:22:17;;;;;;;3.45;2.10;;;;;;;11.42;50.12;98611.13;4825631;29;20132;-78
2022/05/15 02:24:43;;;;;;;5.55;2.05;;;;;;;11.42;50.16;98603.31;4811954;29;20046;-80
2022/05/15 02:27:09;;;;;;;5.78;2.47;;;;;;;11.50;50.17;98612.66;4821124;29;20137;-81
2022/05/15 02:29:35;;;;;;;6.18;2.08;;;;;;;11.58;50.40;98628.91;4805898;29;20057;-79
2022/05/15 02:32:02;;;;;;;4.28;2.05;;;;;;;11.43;49.97;98599.81;4823146;29;20090;-79
2022/05/15 02:34:28;;;;;;;7.82;2.20;;;;;;;11.44;49.77;98611.94;4842314;29;20061;-78
2022/05/15 02:36:54;;;;;;;5.38;2.08;;;;;;;11.50;49.85;98615.25;4833464;29;20108;-77
2022/05/15 02:39:20;;;;;;;3.35;1.80;;;;;;;11.57;50.26;98627.19;4827330;29;20227;-79
2022/05/15 02:41:46;;;;;;;4.72;1.63;;;;;;;11.44;50.18;98617.13;4808211;29;20470;-79
2022/05/15 02:44:12;;;;;;;5.47;1.85;;;;;;;11.42;50.03;98600.72;4837500;29;20097;-79
2022/05/15 02:46:38;;;;;;;4.35;2.30;;;;;;;11.54;50.01;98635.94;4840644;29;20128;-79
2022/05/15 02:51:49;;;;;;;3.55;1.80;;;;;;;11.32;50.06;98612.31;4811710;29;20054;-79
2022/05/15 02:54:15;;;;;;;3.67;1.60;;;;;;;11.20;50.37;98581.44;4819766;29;20050;-77
2022/05/15 02:56:42;;;;;;;3.33;1.58;;;;;;;11.29;49.95;98602.84;4804279;29;20153;-79
2022/05/15 02:59:08;;;;;;;3.90;1.63;;;;;;;11.32;50.41;98604.50;4834289;29;20093;-80
2022/05/15 03:01:37;;;;;;;5.38;1.85;;;;;;;11.61;50.61;98628.78;4835145;29;20057;-79
2022/05/15 03:04:04;;;;;;;6.68;2.17;;;;;;;11.84;50.37;98622.84;4812718;29;20056;-78
2022/05/15 03:06:30;;;;;;;4.00;1.77;;;;;;;12.05;49.93;98620.44;4818651;29;20479;-80
2022/05/15 03:08:57;;;;;;;2.03;1.55;;;;;;;12.23;49.96;98607.69;4835835;29;20046;-81
2022/05/15 03:11:24;;;;;;;3.38;1.50;;;;;;;12.58;49.58;98619.47;4834241;29;20106;-78
2022/05/15 03:13:49;;;;;;;6.60;1.70;;;;;;;12.76;48.80;98617.97;4792459;29;20693;-79
2022/05/15 03:16:18;;;;;;;7.07;2.38;;;;;;;12.99;48.76;98623.25;4789113;29;20132;-78
2022/05/15 03:18:50;;;;;;;3.97;1.52;;;;;;;13.16;48.57;98626.06;4826787;29;20041;-81
2022/05/15 03:21:30;;;;;;;4.00;1.73;;;;;;;13.32;48.24;98625.50;4826565;29;20069;-79
2022/05/15 03:24:09;;;;;;;2.65;1.60;;;;;;;13.35;47.87;98615.75;4817903;29;20168;-79
2022/05/15 03:26:39;;;;;;;3.58;1.60;;;;;;;13.51;47.72;98623.00;4818619;29;20046;-80
2022/05/15 03:29:06;;;;;;;7.50;1.80;;;;;;;13.49;47.17;98617.88;4810847;29;20099;-79
2022/05/15 03:31:37;;;;;;;4.15;1.80;;;;;;;13.53;47.23;98626.41;4835653;29;20073;-80
2022/05/15 03:34:05;;;;;;;3.45;1.60;;;;;;;13.62;47.38;98633.91;4835076;29;20059;-79
2022/05/15 03:36:32;;;;;;;2.95;1.70;;;;;;;13.63;47.33;98627.78;4816935;29;20045;-77
2022/05/15 03:38:58;;;;;;;5.22;1.70;;;;;;;13.46;47.11;98615.38;4802899;29;20053;-80
2022/05/15 03:41:24;;;;;;;3.95;1.90;;;;;;;13.33;47.15;98599.28;4819610;29;20042;-78
2022/05/15 03:43:50;;;;;;;4.47;1.77;;;;;;;13.53;47.24;98629.91;4818881;29;20608;-78
2022/05/15 03:46:16;;;;;;;4.53;1.60;;;;;;;13.79;47.00;98635.81;4819066;29;20052;-77
2022/05/15 03:48:42;;;;;;;4.72;1.50;;;;;;;14.16;46.59;98633.44;4810454;29;20529;-80
2022/05/15 03:51:08;;;;;;;3.30;1.40;;;;;;;14.53;46.13;98639.75;4834634;29;20098;-78
2022/05/15 03:53:34;;;;;;;4.47;1.63;;;;;;;14.61;45.79;98614.06;4803298;29;20050;-78
2022/05/15 03:56:00;;;;;;;2.92;1.50;;;;;;;14.62;45.45;98609.69;4818352;29;20635;-78
2022/05/15 03:58:30;;;;;;;3.15;1.60;;;;;;;14.75;45.21;98628.34;4804419;29;20048;-79
2022/05/15 04:00:56;;;;;;;4.25;1.75;;;;;;;14.81;45.08;98627.22;4824032;29;20041;-80
2022/05/15 04:03:22;;;;;;;4.60;1.90;;;;;;;14.90;45.19;98632.88;4825701;29;20598;-79
2022/05/15 04:05:51;;;;;;;4.13;1.63;;;;;;;15.16;44.99;98624.75;4820692;29;20050;-78
2022/05/15 04:08:24;;;;;;;4.07;1.55;;;;;;;14.66;44.33;98519.63;4811247;29;20064;-79
2022/05/15 04:10:50;;;;;;;5.18;1.60;;;;;;;15.18;44.04;98589.72;4852081;29;20038;-79
2022/05/15 04:13:24;;;;;;;6.25;1.83;;;;;;;15.62;43.91;98627.81;4848530;29;20054;-78
2022/05/15 04:15:50;;;;;;;8.65;1.50;;;;;;;15.90;43.40;98621.25;4822122;29;20069;-79
2022/05/15 04:18:27;;;;;;;5.25;1.83;;;;;;;16.08;43.00;98610.75;4837185;29;20156;-81
2022/05/15 04:21:19;;;;;;;3.38;1.77;;;;;;;16.19;42.61;98587.47;4809398;29;20128;-81
2022/05/15 04:23:54;;;;;;;3.60;1.60;;;;;;;16.11;41.85;98547.63;4807768;29;20252;-78
2022/05/15 04:26:20;;;;;;;5.05;1.58;;;;;;;16.60;41.76;98601.97;4840406;29;20640;-78
2022/05/15 04:28:46;;;;;;;3.72;1.52;;;;;;;16.79;41.29;98625.50;4832922;29;20140;-77
2022/05/15 04:31:13;;;;;;;6.20;1.58;;;;;;;16.68;41.08;98598.94;4815645;29;20577;-80
2022/05/15 04:33:39;;;;;;;2.85;1.55;;;;;;;16.94;40.91;98617.72;4817974;29;20129;-81
2022/05/15 04:36:08;;;;;;;4.43;1.63;;;;;;;17.02;40.63;98623.44;4821815;29;20037;-79
2022/05/15 04:38:37;;;;;;;3.97;1.40;;;;;;;16.73;40.47;98568.03;4821534;29;20158;-81
2022/05/15 04:41:31;;;;;;;2.10;1.60;;;;;;;16.82;40.19;98591.19;4838058;29;20046;-79
2022/05/15 04:43:57;;;;;;;3.25;1.40;;;;;;;16.58;40.52;98542.59;4807513;29;20068;-80
2022/05/15 04:46:27;;;;;;;6.63;1.70;;;;;;;17.11;40.04;98617.66;4838317;29;20198;-79
2022/05/15 04:48:53;;;;;;;2.85;1.50;;;;;;;17.00;39.96;98586.72;4823707;29;20046;-80
2022/05/15 04:51:19;;;;;;;3.13;1.60;;;;;;;17.39;39.69;98628.47;4840124;29;20069;-80
2022/05/15 04:53:45;;;;;;;3.03;1.30;;;;;;;17.53;39.21;98615.38;4823682;29;20045;-80
2022/05/15 04:56:11;;;;;;;3.42;1.48;;;;;;;17.52;39.38;98599.69;4838369;29;20543;-82
2022/05/15 04:58:37;;;;;;;3.55;1.63;;;;;;;17.54;38.88;98579.41;4811346;29;20110;-81
2022/05/15 05:01:03;;;;;;;5.00;1.50;;;;;;;17.94;38.94;98606.06;4823391;29;20053;-81
2022/05/15 05:03:29;;;;;;;5.18;1.45;;;;;;;18.31;38.65;98610.97;4838764;29;20050;-79
2022/05/15 05:05:54;;;;;;;3.83;1.40;;;;;;;18.39;38.12;98589.44;4819102;29;20061;-82
2022/05/15 05:08:30;;;;;;;2.22;1.40;;;;;;;18.62;37.72;98594.16;4815175;29;20046;-79
2022/05/15 05:10:56;;;;;;;3.90;1.40;;;;;;;18.55;37.44;98598.09;4814291;29;20038;-81
2022/05/15 05:13:22;;;;;;;3.10;1.63;;;;;;;18.33;37.48;98570.44;4821199;29;20057;-80
2022/05/15 05:15:48;;;;;;;4.88;1.60;;;;;;;18.76;37.65;98600.34;4837003;29;20187;-78
2022/05/15 05:18:16;;;;;;;1.60;1.10;;;;;;;19.05;37.34;98589.81;4820706;29;20057;-78
2022/05/15 05:20:44;;;;;;;4.85;1.40;;;;;;;19.56;36.77;98594.47;4817696;29;20046;-77
2022/05/15 05:23:10;;;;;;;4.65;2.80;;;;;;;20.09;36.36;98585.75;4820099;29;20069;-78
2022/05/15 05:25:36;;;;;;;21.38;10.77;;;;;;;20.58;35.54;98589.47;4821033;29;20533;-80
2022/05/15 05:28:03;;;;;;;19.58;12.02;;;;;;;21.10;35.11;98581.47;4824207;29;20045;-82
2022/05/15 05:30:29;;;;;;;8.77;2.45;;;;;;;21.19;34.38;98559.66;4836703;29;20057;-78
2022/05/15 05:32:55;;;;;;;26.23;17.27;;;;;;;21.75;34.08;98590.88;4822581;29;20045;-81
2022/05/15 05:35:24;;;;;;;6.97;4.72;;;;;;;22.42;33.05;98573.47;4821663;29;20074;-79
2022/05/15 05:37:51;;;;;;;4.82;2.20;;;;;;;24.19;31.75;98569.06;4821391;29;20050;-81
2022/05/15 05:40:17;;;;;;;5.97;3.40;;;;;;;25.70;29.96;98586.94;4837099;29;20530;-79
2022/05/15 05:42:43;;;;;;;12.15;8.52;;;;;;;27.26;28.58;98578.63;4837909;29;20074;-80
2022/05/15 05:45:10;;;;;;;6.80;3.45;;;;;;;28.80;26.81;98569.50;4838650;29;20049;-81
2022/05/15 05:47:36;;;;;;;5.57;3.15;;;;;;;29.87;25.58;98568.91;4851348;29;20065;-79
2022/05/15 05:50:08;;;;;;;13.07;9.30;;;;;;;29.51;24.31;98571.06;4840103;29;20046;-81
2022/05/15 05:52:39;;;;;;;8.38;6.18;;;;;;;28.67;24.82;98563.72;4842864;29;20136;-79
2022/05/15 05:55:07;;;;;;;12.35;7.50;;;;;;;28.71;24.83;98590.00;4817708;29;20444;-79
2022/05/15 05:57:33;;;;;;;10.85;2.78;;;;;;;30.22;24.00;98587.50;4834135;29;20046;-79
2022/05/15 05:59:59;;;;;;;12.18;9.38;;;;;;;30.29;23.07;98564.34;4846453;29;20026;-82
2022/05/15 06:02:27;;;;;;;6.00;2.20;;;;;;;29.67;23.03;98580.94;4837826;29;20046;-80
2022/05/15 06:04:53;;;;;;;11.93;7.57;;;;;;;28.59;23.96;98577.91;4837822;29;20041;-80
2022/05/15 06:07:23;;;;;;;9.88;3.25;;;;;;;27.44;24.35;98537.78;4836629;29;20050;-80
2022/05/15 06:09:51;;;;;;;6.05;3.72;;;;;;;28.21;24.47;98586.22;4837701;29;20708;-80
2022/05/15 06:12:25;;;;;;;9.10;2.72;;;;;;;30.18;22.88;98536.06;4820609;29;20045;-78
2022/05/15 06:14:54;;;;;;;5.55;3.85;;;;;;;32.59;21.21;98543.38;4821195;29;20048;-81
2022/05/15 06:17:21;;;;;;;5.82;3.72;;;;;;;34.62;20.01;98572.13;4821618;29;20410;-80
2022/05/15 06:19:54;;;;;;;19.45;13.60;;;;;;;35.54;18.60;98566.41;4821604;29;21501;-82
2022/05/15 06:22:23;;;;;;;28.42;23.17;;;;;;;35.98;18.49;98574.16;4813546;29;20136;-80
2022/05/15 06:25:24;;;;;;;9.70;6.55;;;;;;;36.65;17.87;98470.34;4821259;29;20042;-78
2022/05/15 06:27:50;;;;;;;5.40;3.67;;;;;;;38.53;16.25;98569.31;4830718;29;20499;-80
2022/05/15 06:30:17;;;;;;;11.60;9.38;;;;;;;37.33;16.00;98578.16;4837171;29;20060;-80
2022/05/15 06:32:47;;;;;;;5.20;3.80;;;;;;;35.18;16.80;98553.25;4810291;29;20105;-82
2022/05/15 06:35:15;;;;;;;3.75;2.40;;;;;;;33.25;18.05;98582.13;4818628;29;20053;-81
2022/05/15 06:37:41;;;;;;;4.82;1.58;;;;;;;31.31;18.48;98583.47;4819223;29;20043;-79
2022/05/15 06:40:09;;;;;;;2.47;1.35;;;;;;;29.57;19.75;98578.44;4818565;29;20065;-80
2022/05/15 06:42:46;;;;;;;3.58;1.45;;;;;;;27.85;20.76;98548.84;4815511;29;20046;-82
2022/05/15 06:45:14;;;;;;;2.47;1.40;;;;;;;26.92;21.21;98597.94;4820184;29;20042;-80
2022/05/15 06:47:40;;;;;;;3.08;1.65;;;;;;;25.98;22.17;98594.22;4826827;29;20143;-78
2022/05/15 06:50:23;;;;;;;5.65;2.15;;;;;;;25.44;23.00;98593.78;4835556;29;20053;-78
2022/05/15 06:52:50;;;;;;;2.15;1.35;;;;;;;24.91;23.67;98593.94;4832471;29;20078;-77
2022/05/15 06:55:21;;;;;;;4.47;2.25;;;;;;;24.42;24.02;98576.88;4821884;29;20042;-78
2022/05/15 06:57:50;;;;;;;;;;;;;;;24.14;24.07;98600.53;4828348;29;20079;-80
2022/05/15 07:00:27;;;;;;;4.53;1.75;;;;;;;23.92;24.63;98591.66;4826559;29;19920;-78
2022/05/15 07:02:53;;;;;;;5.55;1.50;;;;;;;23.60;25.12;98581.91;4827267;29;20038;-81
2022/05/15 07:05:31;;;;;;;6.60;3.72;;;;;;;23.71;25.29;98589.84;4810178;29;20074;-82
2022/05/15 07:08:00;;;;;;;5.13;1.65;;;;;;;23.87;25.00;98527.47;4826684;29;20057;-82
2022/05/15 07:10:26;;;;;;;5.00;2.47;;;;;;;24.26;25.07;98575.56;4826926;29;20419;-81
2022/05/15 07:12:52;;;;;;;4.78;1.42;;;;;;;23.80;25.23;98558.16;4819080;29;20046;-81
2022/05/15 07:15:18;;;;;;;4.28;2.97;;;;;;;23.30;25.41;98556.91;4819167;29;20038;-81
2022/05/15 07:17:45;;;;;;;5.05;3.45;;;;;;;22.93;25.78;98573.97;4802682;29;20873;-81
2022/05/15 07:20:11;;;;;;;6.18;3.35;;;;;;;22.54;26.19;98554.91;4811001;29;20105;-77
2022/05/15 07:22:38;;;;;;;4.53;2.80;;;;;;;22.65;26.30;98588.53;4832304;29;20136;-80
2022/05/15 07:25:17;;;;;;;9.13;5.50;;;;;;;22.49;26.43;98584.44;4835826;29;20054;-81
2022/05/15 07:27:43;;;;;;;8.18;3.60;;;;;;;22.34;26.73;98575.00;4816502;29;20054;-78
2022/05/15 07:30:09;;;;;;;3.45;2.28;;;;;;;22.08;26.67;98548.72;4829974;29;20089;-80
2022/05/15 07:32:38;;;;;;;14.85;10.55;;;;;;;22.05;26.95;98543.66;4837631;29;20173;-82
2022/05/15 07:35:08;;;;;;;5.10;3.20;;;;;;;22.55;27.26;98596.38;4834799;29;20838;-76
2022/05/15 07:37:36;;;;;;;3.42;1.63;;;;;;;22.09;26.71;98460.34;4838259;29;20046;-83
2022/05/15 07:40:03;;;;;;;6.13;1.80;;;;;;;22.93;26.20;98536.84;4823904;29;20042;-79
2022/05/15 07:42:29;;;;;;;3.17;2.08;;;;;;;23.69;26.08;98578.50;4821445;29;20046;-80
2022/05/15 07:45:01;;;;;;;6.35;3.38;;;;;;;23.45;25.54;98462.75;4821791;29;20085;-82
2022/05/15 07:47:35;;;;;;;3.75;1.67;;;;;;;24.57;24.78;98542.81;4832212;29;20053;-80
2022/05/15 07:50:38;;;;;;;;;;;;;;;;;;;;;
2022/05/15 07:53:08;;;;;;;4.90;1.92;;;;;;;26.98;22.87;98500.44;4834621;29;20069;-80
2022/05/15 07:56:12;;;;;;;3.15;1.52;;;;;;;28.63;21.12;98420.56;4837799;29;20130;-81
2022/05/15 08:00:05;;;;;;;4.85;1.77;;;;;;;31.33;19.22;98543.81;4771708;30;20088;-79
2022/05/15 08:09:10;;;;;;;3.08;1.50;;;;;;;33.90;17.53;98396.91;4804128;29;20155;-79
2022/05/15 08:11:49;;;;;;;3.13;1.50;;;;;;;35.80;16.86;98535.03;4803884;29;20043;-79
2022/05/15 08:15:05;;;;;;;3.28;1.55;;;;;;;36.46;14.89;98535.19;4770929;29;20068;-80
2022/05/15 08:26:32;;;;;;;;;;;;;;;31.37;18.30;98537.91;4725368;30;20067;-79
2022/05/15 08:29:31;;;;;;;;;;;;;;;;;;;;;
2022/05/15 08:35:48;;;;;;;3.38;1.00;;;;;;;35.52;14.90;98491.97;4736318;30;20195;-81
2022/05/15 08:38:15;;;;;;;6.82;4.90;;;;;;;36.92;13.97;98492.69;4773123;30;20146;-78
2022/05/15 08:40:54;;;;;;;4.82;4.32;;;;;;;37.38;13.32;98526.84;4780723;29;20061;-80
2022/05/15 08:43:44;;;;;;;4.63;2.97;;;;;;;35.62;14.11;98526.72;4810441;29;20122;-78
2022/05/15 08:46:20;;;;;;;3.17;1.85;;;;;;;34.93;13.99;98526.75;4812382;29;20084;-79
2022/05/15 08:48:51;;;;;;;4.10;3.70;;;;;;;33.63;14.52;98509.09;4811700;29;20061;-79
2022/05/15 08:51:17;;;;;;;;;;;;;;;34.17;14.74;98526.56;4810892;29;20054;-78
2022/05/15 08:53:49;;;;;;;5.30;1.40;;;;;;;35.45;14.78;98516.31;4807836;29;19927;-79
2022/05/15 08:56:16;;;;;;;4.40;1.30;;;;;;;35.51;14.23;98511.94;4810268;29;20038;-80
2022/05/15 08:58:50;;;;;;;8.85;6.40;;;;;;;36.62;13.26;98490.56;4813422;29;20031;-79
2022/05/15 09:01:24;;;;;;;5.88;3.58;;;;;;;38.94;13.08;98508.03;4819587;29;20042;-78
2022/05/15 09:03:54;;;;;;;8.60;5.30;;;;;;;39.55;12.50;98518.00;4813924;29;20071;-80
2022/05/15 09:06:39;;;;;;;8.63;7.00;;;;;;;37.76;12.81;98513.41;4808085;29;20145;-80
2022/05/15 09:09:18;;;;;;;1.92;1.40;;;;;;;35.34;13.78;98524.97;4817965;29;20529;-79
2022/05/15 09:11:55;;;;;;;6.03;4.07;;;;;;;33.29;15.13;98527.63;4818519;29;20042;-79
2022/05/15 09:14:57;;;;;;;4.50;1.98;;;;;;;31.73;16.27;98525.72;4805023;29;20137;-80
2022/05/15 09:17:58;;;;;;;3.38;1.55;;;;;;;30.45;17.90;98535.81;4773471;29;20080;-81
2022/05/15 09:20:24;;;;;;;;;;;;;;;29.41;19.04;98537.25;4803083;29;20080;-79
2022/05/15 09:22:58;;;;;;;4.75;3.20;;;;;;;28.30;19.94;98501.53;4801755;29;19925;-82
2022/05/15 09:25:25;;;;;;;4.55;2.70;;;;;;;27.45;20.78;98526.09;4801058;29;20051;-82
2022/05/15 09:28:12;;;;;;;5.90;2.67;;;;;;;26.81;22.19;98560.81;4802160;29;20048;-78
2022/05/15 09:30:50;;;;;;;3.10;2.17;;;;;;;25.74;22.94;98533.41;4787166;29;20107;-78
2022/05/15 09:33:43;;;;;;;6.10;2.47;;;;;;;25.22;24.21;98561.94;4821599;29;20059;-81
2022/05/15 09:36:23;;;;;;;3.88;2.25;;;;;;;24.71;24.79;98561.13;4820174;29;20039;-82
2022/05/15 09:39:31;;;;;;;5.47;2.40;;;;;;;24.09;25.41;98561.03;4817604;29;20054;-81
2022/05/15 09:44:57;;;;;;;4.28;1.67;;;;;;;23.13;26.21;98550.28;4801229;29;20061;-82
2022/05/15 09:47:37;;;;;;;8.70;1.27;;;;;;;22.66;26.77;98569.03;4819999;29;20595;-80
2022/05/15 09:50:05;;;;;;;4.78;1.30;;;;;;;22.12;27.04;98576.66;4818628;29;20445;-82
2022/05/15 09:52:42;;;;;;;6.50;1.50;;;;;;;21.78;27.93;98595.94;4823419;29;20487;-81
2022/05/15 09:55:30;;;;;;;2.65;1.50;;;;;;;21.49;28.40;98580.38;4822081;29;20066;-81
2022/05/15 09:58:05;;;;;;;2.55;1.35;;;;;;;21.31;29.05;98589.66;4838802;29;20583;-80
2022/05/15 10:00:34;;;;;;;6.00;1.60;;;;;;;21.05;29.62;98590.59;4821373;29;20046;-80
2022/05/15 10:03:20;;;;;;;3.35;1.52;;;;;;;20.51;30.47;98565.28;4823151;29;20106;-79
2022/05/15 10:05:57;;;;;;;3.20;2.10;;;;;;;20.02;30.98;98540.44;4820015;29;20489;-82
2022/05/15 10:08:27;;;;;;;12.63;8.40;;;;;;;20.00;31.30;98585.44;4821464;29;20042;-78
2022/05/15 10:11:10;;;;;;;6.10;4.57;;;;;;;19.77;31.94;98567.63;4830985;29;20429;-80
2022/05/15 10:13:42;;;;;;;6.78;5.13;;;;;;;19.88;32.03;98593.31;4826140;29;20050;-79
2022/05/15 10:16:23;;;;;;;8.50;5.20;;;;;;;19.67;32.32;98510.16;4810346;29;20091;-77
2022/05/15 10:19:11;;;;;;;8.13;6.03;;;;;;;20.61;32.13;98587.44;4825704;29;20921;-77
2022/05/15 10:22:22;;;;;;;4.57;2.45;;;;;;;21.24;31.57;98485.25;4825003;29;20049;-78
2022/05/15 10:24:57;;;;;;;6.38;4.25;;;;;;;23.33;29.89;98548.69;4816020;29;20073;-80
2022/05/15 10:28:20;;;;;;;2.17;0.90;;;;;;;24.16;27.58;98566.69;4800327;29;20046;-79
2022/05/15 10:31:08;;;;;;;2.13;0.90;;;;;;;24.08;27.57;98567.31;4800873;29;20050;-79
2022/05/15 10:33:43;;;;;;;7.25;3.85;;;;;;;23.80;27.60;98560.81;4816709;29;20062;-81
2022/05/15 10:36:33;;;;;;;1.98;0.98;;;;;;;23.67;27.19;98559.19;4821679;29;20051;-79
2022/05/15 10:39:52;;;;;;;2.55;1.45;;;;;;;23.68;26.70;98554.72;4843170;29;20392;-79
2022/05/15 10:42:31;;;;;;;;;;;;;;;23.74;26.23;98560.34;4797243;29;21067;-79
2022/05/15 10:45:18;;;;;;;6.03;3.70;;;;;;;24.08;25.93;98559.34;4829929;29;19996;-78
2022/05/15 10:48:13;;;;;;;4.57;3.45;;;;;;;24.30;25.56;98553.06;4830079;29;20073;-81
2022/05/15 10:58:34;;;;;;;2.38;2.05;;;;;;;24.12;24.21;98557.28;4830334;29;20050;-81
2022/05/15 11:01:44;;;;;;;3.42;1.75;;;;;;;24.26;23.93;98559.59;4821141;29;20106;-80
2022/05/15 11:04:41;;;;;;;1.48;0.98;;;;;;;24.04;23.81;98558.78;4839735;29;20521;-79
2022/05/15 11:08:01;;;;;;;7.13;1.05;;;;;;;23.05;23.48;98455.44;4839314;29;20054;-80
2022/05/15 11:10:32;;;;;;;5.15;1.17;;;;;;;23.28;23.53;98505.78;4810314;29;20156;-80
2022/05/15 11:17:25;;;;;;;1.50;0.77;;;;;;;23.45;23.36;98560.97;4761305;29;20051;-80
2022/05/15 11:20:06;;;;;;;5.10;0.90;;;;;;;23.00;23.20;98519.44;4794603;29;21010;-80
2022/05/15 11:22:56;;;;;;;2.90;1.63;;;;;;;22.56;23.86;98500.84;4831796;29;20770;-80
2022/05/15 11:26:03;;;;;;;2.95;1.25;;;;;;;21.54;24.08;98381.56;4811156;29;20046;-81
2022/05/15 11:28:37;;;;;;;2.95;1.20;;;;;;;22.64;24.42;98568.28;4812235;29;20528;-79
2022/05/15 11:31:09;;;;;;;2.45;1.05;;;;;;;22.29;24.37;98532.94;4827936;29;20062;-81
2022/05/15 11:34:15;;;;;;;3.17;1.50;;;;;;;22.61;25.02;98573.88;4839179;29;20126;-80
2022/05/15 11:36:46;;;;;;;1.85;1.50;;;;;;;22.58;24.84;98531.69;4827955;29;20426;-79
2022/05/15 11:39:22;;;;;;;4.00;1.20;;;;;;;22.96;24.75;98562.25;4826766;29;20045;-81
2022/05/15 11:44:47;;;;;;;12.75;1.45;;;;;;;23.29;24.90;98556.06;4845704;29;20045;-78
2022/05/15 11:47:32;;;;;;;4.88;1.23;;;;;;;23.25;25.30;98554.63;4815603;29;20068;-78
2022/05/15 11:50:43;;;;;;;1.85;1.17;;;;;;;23.31;25.21;98558.59;4834055;29;20053;-80
2022/05/15 11:53:51;;;;;;;1.63;1.48;;;;;;;23.14;25.55;98551.97;4798432;29;20053;-78
2022/05/15 11:56:21;;;;;;;2.58;1.50;;;;;;;22.94;25.86;98545.63;4844258;29;20068;-79
2022/05/15 11:58:57;;;;;;;3.67;1.50;;;;;;;22.52;26.36;98515.31;4837424;29;20061;-78
2022/05/15 12:01:38;;;;;;;4.35;1.92;;;;;;;22.77;26.78;98550.47;4825335;29;20132;-79
2022/05/15 12:04:26;;;;;;;8.23;1.20;;;;;;;22.39;27.04;98546.34;4821604;29;20061;-79
2022/05/15 12:07:09;;;;;;;1.40;1.10;;;;;;;22.22;27.25;98543.19;4820049;29;20057;-81
2022/05/15 12:09:50;;;;;;;3.70;1.75;;;;;;;22.20;27.27;98547.75;4837708;29;20045;-80
2022/05/15 12:12:23;;;;;;;4.70;1.35;;;;;;;22.03;27.50;98537.63;4837020;29;20099;-78
2022/05/15 12:19:44;;;;;;;6.38;1.77;;;;;;;21.47;27.40;98547.06;4836188;29;20514;-81
2022/05/15 12:27:42;;;;;;;6.03;1.67;;;;;;;21.58;27.45;98551.56;4834201;29;20110;-80
2022/05/15 12:30:22;;;;;;;3.38;1.35;;;;;;;21.80;27.36;98558.75;4812942;29;20054;-80
2022/05/15 12:37:19;;;;;;;2.55;1.30;;;;;;;21.76;26.78;98567.88;4764012;30;20073;-82
2022/05/15 12:39:54;;;;;;;2.63;1.30;;;;;;;21.52;27.19;98534.31;4819938;29;20053;-79
2022/05/15 12:42:44;;;;;;;5.78;1.60;;;;;;;20.92;27.23;98449.66;4806978;29;20550;-82
2022/05/15 12:45:21;;;;;;;3.00;1.50;;;;;;;20.80;27.35;98467.25;4837714;29;20472;-79
2022/05/15 12:48:28;;;;;;;3.22;1.42;;;;;;;21.02;27.33;98568.78;4835221;29;20096;-79
2022/05/15 12:51:08;;;;;;;4.97;1.50;;;;;;;20.11;28.25;98566.22;4815939;29;20073;-78
2022/05/15 12:54:35;;;;;;;;;;;;;;;;;;;;;
2022/05/15 12:58:07;;;;;;;4.15;1.98;;;;;;;18.96;30.79;98576.25;4755788;30;20892;-81
2022/05/15 13:00:40;;;;;;;4.60;1.98;;;;;;;17.76;31.60;98429.91;4788869;29;20058;-82
2022/05/15 13:03:12;;;;;;;2.97;1.50;;;;;;;18.63;32.00;98582.69;4826403;29;20126;-79